createdAt,value
2023-12-18T00:01:30.993Z,100643.00
2023-12-18T00:04:04.666Z,100647.00
2023-12-18T00:06:36.572Z,100648.00
2023-12-18T00:09:08.040Z,100637.00
2023-12-18T00:11:38.951Z,100635.00
2023-12-18T00:14:09.930Z,100634.00
2023-12-18T00:16:40.826Z,100628.00
2023-12-18T00:19:11.969Z,100627.00
2023-12-18T00:21:43.058Z,100622.00
2023-12-18T00:24:14.137Z,100616.00
2023-12-18T00:26:45.273Z,100613.00
2023-12-18T00:29:16.173Z,100616.00
2023-12-18T00:31:49.130Z,100616.00
2023-12-18T00:34:20.284Z,100605.00
2023-12-18T00:36:51.239Z,100610.00
2023-12-18T00:39:22.258Z,100617.00
2023-12-18T00:41:53.222Z,100606.00
2023-12-18T00:44:24.085Z,100610.00
2023-12-18T00:46:55.383Z,100613.00
2023-12-18T00:49:29.393Z,100620.00
2023-12-18T00:52:00.958Z,100613.00
2023-12-18T00:54:31.946Z,100606.00
2023-12-18T00:57:02.948Z,100609.00
2023-12-18T00:59:33.867Z,100619.00
2023-12-18T01:02:05.112Z,100603.00
2023-12-18T01:04:36.909Z,100602.00
2023-12-18T01:07:07.912Z,100600.00
2023-12-18T01:09:39.150Z,100604.00
2023-12-18T01:12:10.231Z,100607.00
2023-12-18T01:14:41.365Z,100600.00
2023-12-18T01:17:14.207Z,100613.00
2023-12-18T01:19:46.186Z,100607.00
2023-12-18T01:22:17.226Z,100605.00
2023-12-18T01:24:48.471Z,100603.00
2023-12-18T01:27:19.855Z,100596.00
2023-12-18T01:29:50.875Z,100595.00
2023-12-18T01:32:21.962Z,100601.00
2023-12-18T01:34:52.913Z,100579.00
2023-12-18T01:37:23.869Z,100601.00
2023-12-18T01:39:54.768Z,100601.00
2023-12-18T01:42:25.833Z,100589.00
2023-12-18T01:44:56.756Z,100589.00
2023-12-18T01:47:27.979Z,100582.00
2023-12-18T01:49:59.100Z,100579.00
2023-12-18T01:52:30.759Z,100578.00
2023-12-18T01:55:02.162Z,100572.00
2023-12-18T01:57:34.963Z,100576.00
2023-12-18T02:00:08.176Z,100563.00
2023-12-18T02:02:39.666Z,100561.00
2023-12-18T02:05:10.686Z,100552.00
2023-12-18T02:07:41.917Z,100552.00
2023-12-18T02:10:12.994Z,100561.00
2023-12-18T02:12:43.950Z,100556.00
2023-12-18T02:15:15.022Z,100556.00
2023-12-18T02:17:45.990Z,100557.00
2023-12-18T02:20:17.122Z,100552.00
2023-12-18T02:22:47.981Z,100551.00
2023-12-18T02:25:20.054Z,100557.00
2023-12-18T02:27:51.376Z,100562.00
2023-12-18T02:30:25.781Z,100551.00
2023-12-18T02:32:56.860Z,100546.00
2023-12-18T02:35:28.139Z,100549.00
2023-12-18T02:37:59.159Z,100540.00
2023-12-18T02:40:30.105Z,100547.00
2023-12-18T02:43:01.150Z,100547.00
2023-12-18T02:45:32.063Z,100539.00
2023-12-18T02:48:03.193Z,100531.00
2023-12-18T02:50:34.095Z,100522.00
2023-12-18T02:53:05.252Z,100538.00
2023-12-18T02:55:36.176Z,100522.00
2023-12-18T02:58:07.102Z,100514.00
2023-12-18T03:00:38.053Z,100519.00
2023-12-18T03:03:09.061Z,100518.00
2023-12-18T03:05:40.078Z,100513.00
2023-12-18T03:08:10.996Z,100523.00
2023-12-18T03:10:41.945Z,100521.00
2023-12-18T03:13:13.644Z,100526.00
2023-12-18T03:15:45.154Z,100518.00
2023-12-18T03:18:16.282Z,100513.00
2023-12-18T03:20:47.940Z,100506.00
2023-12-18T03:23:18.859Z,100510.00
2023-12-18T03:25:49.821Z,100521.00
2023-12-18T03:28:20.751Z,100506.00
2023-12-18T03:30:51.772Z,100514.00
2023-12-18T03:33:22.805Z,100515.00
2023-12-18T03:35:53.833Z,100510.00
2023-12-18T03:38:25.835Z,100503.00
2023-12-18T03:40:56.775Z,100501.00
2023-12-18T03:43:28.030Z,100505.00
2023-12-18T03:45:58.974Z,100508.00
2023-12-18T03:48:29.966Z,100501.00
2023-12-18T03:51:01.049Z,100501.00
2023-12-18T03:53:31.956Z,100497.00
2023-12-18T03:56:02.980Z,100503.00
2023-12-18T03:58:33.955Z,100496.00
2023-12-18T04:01:05.342Z,100499.00
2023-12-18T04:03:36.494Z,100508.00
2023-12-18T04:06:10.768Z,100500.00
2023-12-18T04:08:41.758Z,100502.00
2023-12-18T04:11:20.204Z,100496.00
2023-12-18T04:13:54.107Z,100503.00
2023-12-18T04:16:24.965Z,100493.00
2023-12-18T04:18:56.030Z,100492.00
2023-12-18T04:21:26.983Z,100493.00
2023-12-18T04:23:57.923Z,100498.00
2023-12-18T04:26:28.837Z,100511.00
2023-12-18T04:28:59.693Z,100493.00
2023-12-18T04:31:30.669Z,100505.00
2023-12-18T04:34:01.770Z,100503.00
2023-12-18T04:36:32.877Z,100495.00
2023-12-18T04:39:03.921Z,100505.00
2023-12-18T04:41:34.868Z,100495.00
2023-12-18T04:44:07.056Z,100496.00
2023-12-18T04:46:38.258Z,100493.00
2023-12-18T04:49:10.586Z,100501.00
2023-12-18T04:51:41.672Z,100488.00
2023-12-18T04:54:12.753Z,100496.00
2023-12-18T04:56:43.685Z,100487.00
2023-12-18T04:59:15.172Z,100500.00
2023-12-18T05:01:46.453Z,100494.00
2023-12-18T05:04:17.516Z,100492.00
2023-12-18T05:06:48.522Z,100501.00
2023-12-18T05:09:19.463Z,100507.00
2023-12-18T05:11:50.420Z,100510.00
2023-12-18T05:14:21.624Z,100507.00
2023-12-18T05:16:52.495Z,100498.00
2023-12-18T05:19:24.696Z,100509.00
2023-12-18T05:21:55.684Z,100508.00
2023-12-18T05:24:26.877Z,100498.00
2023-12-18T05:26:57.806Z,100496.00
2023-12-18T05:29:28.706Z,100494.00
2023-12-18T05:31:59.641Z,100502.00
2023-12-18T05:34:31.286Z,100482.00
2023-12-18T05:37:03.512Z,100490.00
2023-12-18T05:39:34.484Z,100486.00
2023-12-18T05:42:06.804Z,100484.00
2023-12-18T05:44:38.937Z,100487.00
2023-12-18T05:47:09.852Z,100488.00
2023-12-18T05:49:41.014Z,100488.00
2023-12-18T05:52:12.034Z,100488.00
2023-12-18T05:54:42.970Z,100485.00
2023-12-18T05:57:18.042Z,100483.00
2023-12-18T05:59:49.103Z,100490.00
2023-12-18T06:02:20.052Z,100489.00
2023-12-18T06:04:51.083Z,100493.00
2023-12-18T06:07:22.120Z,100503.00
2023-12-18T06:09:53.095Z,100510.00
2023-12-18T06:12:24.035Z,100497.00
2023-12-18T06:14:54.950Z,100505.00
2023-12-18T06:17:25.852Z,100493.00
2023-12-18T06:19:57.068Z,100497.00
2023-12-18T06:22:28.050Z,100511.00
2023-12-18T06:24:58.925Z,100507.00
2023-12-18T06:27:29.907Z,100507.00
2023-12-18T06:30:00.809Z,100512.00
2023-12-18T06:32:31.854Z,100521.00
2023-12-18T06:35:02.997Z,100513.00
2023-12-18T06:37:34.079Z,100514.00
2023-12-18T06:40:05.866Z,100510.00
2023-12-18T06:42:36.811Z,100518.00
2023-12-18T06:45:08.502Z,100522.00
2023-12-18T06:47:39.410Z,100525.00
2023-12-18T06:50:10.525Z,100530.00
2023-12-18T06:52:42.664Z,100518.00
2023-12-18T06:55:13.867Z,100535.00
2023-12-18T06:57:44.924Z,100539.00
2023-12-18T07:00:16.506Z,100534.00
2023-12-18T07:02:47.428Z,100536.00
2023-12-18T07:05:18.420Z,100534.00
2023-12-18T07:07:49.377Z,100523.00
2023-12-18T07:10:20.342Z,100528.00
2023-12-18T07:12:51.385Z,100528.00
2023-12-18T07:15:25.632Z,100532.00
2023-12-18T07:17:59.584Z,100525.00
2023-12-18T07:20:30.668Z,100552.00
2023-12-18T07:23:01.636Z,100531.00
2023-12-18T07:25:32.564Z,100551.00
2023-12-18T07:28:08.930Z,100548.00
2023-12-18T07:30:40.620Z,100545.00
2023-12-18T07:33:12.543Z,100552.00
2023-12-18T07:35:43.649Z,100553.00
2023-12-18T07:38:14.726Z,100565.00
2023-12-18T07:40:45.700Z,100568.00
2023-12-18T07:43:17.049Z,100567.00
2023-12-18T07:45:48.135Z,100562.00
2023-12-18T07:48:23.143Z,100558.00
2023-12-18T07:50:54.373Z,100567.00
2023-12-18T07:53:25.279Z,100572.00
2023-12-18T07:55:56.206Z,100576.00
2023-12-18T07:58:27.107Z,100568.00
2023-12-18T08:00:58.249Z,100571.00
2023-12-18T08:03:29.376Z,100572.00
2023-12-18T08:06:00.489Z,100587.00
2023-12-18T08:08:31.359Z,100575.00
2023-12-18T08:11:02.299Z,100566.00
2023-12-18T08:13:39.228Z,100574.00
2023-12-18T08:16:12.476Z,100566.00
2023-12-18T08:18:43.911Z,100556.00
2023-12-18T08:21:15.818Z,100565.00
2023-12-18T08:23:46.789Z,100564.00
2023-12-18T08:26:18.812Z,100558.00
2023-12-18T08:28:49.730Z,100551.00
2023-12-18T08:31:20.958Z,100539.00
2023-12-18T08:33:52.091Z,100553.00
2023-12-18T08:36:23.063Z,100550.00
2023-12-18T08:38:53.965Z,100554.00
2023-12-18T08:41:24.913Z,100552.00
2023-12-18T08:44:03.091Z,100544.00
2023-12-18T08:46:37.155Z,100546.00
2023-12-18T08:49:08.110Z,100548.00
2023-12-18T08:51:39.067Z,100547.00
2023-12-18T08:54:10.369Z,100547.00
2023-12-18T08:56:41.388Z,100557.00
2023-12-18T08:59:12.408Z,100552.00
2023-12-18T09:01:43.343Z,100554.00
2023-12-18T09:04:14.491Z,100548.00
2023-12-18T09:06:45.491Z,100550.00
2023-12-18T09:09:16.472Z,100542.00
2023-12-18T09:11:47.444Z,100536.00
2023-12-18T09:14:18.340Z,100537.00
2023-12-18T09:16:50.274Z,100539.00
2023-12-18T09:19:21.350Z,100530.00
2023-12-18T09:21:52.410Z,100532.00
2023-12-18T09:24:23.352Z,100531.00
2023-12-18T09:26:54.305Z,100531.00
2023-12-18T09:29:25.396Z,100538.00
2023-12-18T09:31:56.412Z,100516.00
2023-12-18T09:34:27.684Z,100506.00
2023-12-18T09:36:58.740Z,100518.00
2023-12-18T09:39:29.779Z,100499.00
2023-12-18T09:42:03.091Z,100513.00
2023-12-18T09:44:34.228Z,100495.00
2023-12-18T09:47:05.795Z,100497.00
2023-12-18T09:49:37.636Z,100498.00
2023-12-18T09:52:11.277Z,100498.00
2023-12-18T09:54:44.272Z,100485.00
2023-12-18T09:57:19.318Z,100488.00
2023-12-18T09:59:50.679Z,100485.00
2023-12-18T10:02:22.883Z,100476.00
2023-12-18T10:04:54.537Z,100475.00
2023-12-18T10:07:25.587Z,100476.00
2023-12-18T10:09:56.575Z,100473.00
2023-12-18T10:12:27.661Z,100468.00
2023-12-18T10:14:58.615Z,100463.00
2023-12-18T10:17:32.178Z,100459.00
2023-12-18T10:20:06.380Z,100463.00
2023-12-18T10:22:37.570Z,100453.00
2023-12-18T10:25:10.880Z,100454.00
2023-12-18T10:27:43.869Z,100455.00
2023-12-18T10:30:17.969Z,100452.00
2023-12-18T10:32:50.169Z,100437.00
2023-12-18T10:35:23.115Z,100433.00
2023-12-18T10:37:55.533Z,100428.00
2023-12-18T10:40:27.765Z,100427.00
2023-12-18T10:43:22.869Z,100429.00
2023-12-18T10:45:58.833Z,100417.00
2023-12-18T10:48:30.671Z,100419.00
2023-12-18T10:51:03.560Z,100408.00
2023-12-18T10:53:36.667Z,100410.00
2023-12-18T10:56:09.930Z,100409.00
2023-12-18T10:58:42.887Z,100402.00
2023-12-18T11:01:16.486Z,100401.00
2023-12-18T11:03:47.822Z,100398.00
2023-12-18T11:06:20.251Z,100395.00
2023-12-18T11:08:52.551Z,100397.00
2023-12-18T11:11:24.960Z,100393.00
2023-12-18T11:14:36.394Z,100389.00
2023-12-18T11:17:28.091Z,100381.00
2023-12-18T11:20:19.731Z,100378.00
2023-12-18T11:22:55.131Z,100367.00
2023-12-18T11:25:36.690Z,100363.00
2023-12-18T11:28:08.158Z,100354.00
2023-12-18T11:30:44.199Z,100355.00
2023-12-18T11:33:16.334Z,100351.00
2023-12-18T11:35:50.487Z,100342.00
2023-12-18T11:38:22.971Z,100338.00
2023-12-18T11:40:54.135Z,100334.00
2023-12-18T11:43:39.803Z,100336.00
2023-12-18T11:46:18.052Z,100342.00
2023-12-18T11:48:50.825Z,100334.00
2023-12-18T11:51:25.085Z,100336.00
2023-12-18T11:54:03.473Z,100332.00
2023-12-18T11:56:41.720Z,100321.00
2023-12-18T11:59:15.704Z,100335.00
2023-12-18T12:01:48.264Z,100313.00
2023-12-18T12:04:21.468Z,100304.00
2023-12-18T12:06:53.238Z,100299.00
2023-12-18T12:09:24.254Z,100289.00
2023-12-18T12:11:55.236Z,100288.00
2023-12-18T12:14:28.354Z,100289.00
2023-12-18T12:17:06.249Z,100283.00
2023-12-18T12:19:37.322Z,100279.00
2023-12-18T12:22:10.528Z,100276.00
2023-12-18T12:24:41.533Z,100273.00
2023-12-18T12:27:13.449Z,100260.00
2023-12-18T12:29:50.829Z,100263.00
2023-12-18T12:32:25.093Z,100268.00
2023-12-18T12:34:57.496Z,100259.00
2023-12-18T12:37:34.838Z,100269.00
2023-12-18T12:40:09.950Z,100264.00
2023-12-18T12:42:42.716Z,100248.00
2023-12-18T12:45:13.763Z,100250.00
2023-12-18T12:47:50.805Z,100249.00
2023-12-18T12:50:21.932Z,100240.00
2023-12-18T12:52:53.004Z,100240.00
2023-12-18T12:55:26.370Z,100246.00
2023-12-18T12:57:57.677Z,100246.00
2023-12-18T13:00:31.312Z,100242.00
2023-12-18T13:03:02.735Z,100241.00
2023-12-18T13:05:34.103Z,100234.00
2023-12-18T13:08:23.277Z,100238.00
2023-12-18T13:10:54.607Z,100230.00
2023-12-18T13:13:30.686Z,100234.00
2023-12-18T13:16:01.804Z,100228.00
2023-12-18T13:18:33.756Z,100240.00
2023-12-18T13:21:05.186Z,100225.00
2023-12-18T13:23:44.328Z,100220.00
2023-12-18T13:26:16.161Z,100222.00
2023-12-18T13:28:47.124Z,100244.00
2023-12-18T13:31:18.146Z,100222.00
2023-12-18T13:33:52.652Z,100218.00
2023-12-18T13:36:24.277Z,100218.00
2023-12-18T13:38:55.298Z,100217.00
2023-12-18T13:41:40.265Z,100215.00
2023-12-18T13:44:12.683Z,100206.00
2023-12-18T13:46:49.915Z,100208.00
2023-12-18T13:49:21.125Z,100204.00
2023-12-18T13:51:52.870Z,100201.00
2023-12-18T13:54:23.982Z,100199.00
2023-12-18T13:56:57.963Z,100227.00
2023-12-18T13:59:28.831Z,100207.00
2023-12-18T14:02:02.069Z,100211.00
2023-12-18T14:04:33.018Z,100198.00
2023-12-18T14:07:04.206Z,100197.00
2023-12-18T14:09:35.200Z,100199.00
2023-12-18T14:12:06.890Z,100196.00
2023-12-18T14:14:37.864Z,100199.00
2023-12-18T14:17:08.768Z,100194.00
2023-12-18T14:19:43.995Z,100188.00
2023-12-18T14:22:15.022Z,100193.00
2023-12-18T14:24:45.929Z,100195.00
2023-12-18T14:27:18.464Z,100192.00
2023-12-18T14:29:49.400Z,100189.00
2023-12-18T14:32:23.077Z,100198.00
2023-12-18T14:34:54.254Z,100198.00
2023-12-18T14:37:25.330Z,100201.00
2023-12-18T14:39:56.473Z,100199.00
2023-12-18T14:42:27.512Z,100198.00
2023-12-18T14:44:59.318Z,100196.00
2023-12-18T14:47:33.438Z,100183.00
2023-12-18T14:50:05.335Z,100195.00
2023-12-18T14:52:36.718Z,100193.00
2023-12-18T14:55:08.311Z,100180.00
2023-12-18T14:57:41.420Z,100188.00
2023-12-18T15:00:13.566Z,100182.00
2023-12-18T15:02:45.030Z,100179.00
2023-12-18T15:05:16.199Z,100175.00
2023-12-18T15:07:47.122Z,100181.00
2023-12-18T15:10:18.781Z,100178.00
2023-12-18T15:12:49.882Z,100179.00
2023-12-18T15:15:20.859Z,100179.00
2023-12-18T15:17:51.886Z,100176.00
2023-12-18T15:20:23.092Z,100167.00
2023-12-18T15:22:53.985Z,100169.00
2023-12-18T15:25:24.936Z,100175.00
2023-12-18T15:27:57.460Z,100179.00
2023-12-18T15:30:28.656Z,100176.00
2023-12-18T15:32:59.711Z,100175.00
2023-12-18T15:35:30.659Z,100167.00
2023-12-18T15:38:01.561Z,100172.00
2023-12-18T15:40:32.511Z,100158.00
2023-12-18T15:43:03.642Z,100166.00
2023-12-18T15:45:34.665Z,100163.00
2023-12-18T15:48:06.287Z,100170.00
2023-12-18T15:50:39.338Z,100184.00
2023-12-18T15:53:11.703Z,100168.00
2023-12-18T15:55:47.053Z,100153.00
2023-12-18T15:58:19.705Z,100158.00
2023-12-18T16:00:50.709Z,100159.00
2023-12-18T16:03:21.843Z,100148.00
2023-12-18T16:05:53.806Z,100150.00
2023-12-18T16:08:25.826Z,100148.00
2023-12-18T16:10:56.797Z,100151.00
2023-12-18T16:13:28.568Z,100147.00
2023-12-18T16:15:59.765Z,100144.00
2023-12-18T16:18:31.103Z,100145.00
2023-12-18T16:21:02.217Z,100155.00
2023-12-18T16:23:33.129Z,100148.00
2023-12-18T16:26:04.425Z,100149.00
2023-12-18T16:28:39.845Z,100148.00
2023-12-18T16:31:11.074Z,100147.00
2023-12-18T16:33:42.196Z,100142.00
2023-12-18T16:36:18.786Z,100150.00
2023-12-18T16:38:49.851Z,100151.00
2023-12-18T16:41:21.816Z,100153.00
2023-12-18T16:43:55.348Z,100155.00
2023-12-18T16:46:40.201Z,100152.00
2023-12-18T16:49:19.094Z,100148.00
2023-12-18T16:51:52.108Z,100152.00
2023-12-18T16:54:26.665Z,100151.00
2023-12-18T16:57:03.183Z,100149.00
2023-12-18T16:59:34.115Z,100142.00
2023-12-18T17:02:05.520Z,100152.00
2023-12-18T17:04:36.709Z,100151.00
2023-12-18T17:07:07.710Z,100145.00
2023-12-18T17:09:39.463Z,100152.00
2023-12-18T17:12:11.928Z,100142.00
2023-12-18T17:14:49.219Z,100160.00
2023-12-18T17:17:22.629Z,100153.00
2023-12-18T17:19:53.631Z,100151.00
2023-12-18T17:22:31.858Z,100155.00
2023-12-18T17:25:02.869Z,100149.00
2023-12-18T17:27:33.861Z,100140.00
2023-12-18T17:30:06.230Z,100147.00
2023-12-18T17:32:37.716Z,100140.00
2023-12-18T17:35:08.937Z,100137.00
2023-12-18T17:37:39.844Z,100132.00
2023-12-18T17:40:12.016Z,100145.00
2023-12-18T17:42:43.280Z,100134.00
2023-12-18T17:45:14.432Z,100135.00
2023-12-18T17:47:45.562Z,100121.00
2023-12-18T17:50:20.001Z,100157.00
2023-12-18T17:52:51.681Z,100140.00
2023-12-18T17:55:22.675Z,100147.00
2023-12-18T17:57:54.840Z,100143.00
2023-12-18T18:00:25.957Z,100150.00
2023-12-18T18:02:57.022Z,100145.00
2023-12-18T18:05:28.153Z,100131.00
2023-12-18T18:08:04.995Z,100136.00
2023-12-18T18:10:37.282Z,100142.00
2023-12-18T18:13:08.225Z,100131.00
2023-12-18T18:15:39.265Z,100129.00
2023-12-18T18:18:13.754Z,100119.00
2023-12-18T18:20:44.852Z,100130.00
2023-12-18T18:23:18.784Z,100133.00
2023-12-18T18:25:49.984Z,100127.00
2023-12-18T18:28:20.929Z,100131.00
2023-12-18T18:30:56.944Z,100137.00
2023-12-18T18:33:33.094Z,100134.00
2023-12-18T18:36:09.056Z,100133.00
2023-12-18T18:38:44.794Z,100129.00
2023-12-18T18:41:15.787Z,100130.00
2023-12-18T18:43:48.921Z,100124.00
2023-12-18T18:46:25.384Z,100125.00
2023-12-18T18:48:56.514Z,100121.00
2023-12-18T18:51:27.556Z,100133.00
2023-12-18T18:53:58.515Z,100126.00
2023-12-18T18:56:29.648Z,100129.00
2023-12-18T18:59:03.074Z,100130.00
2023-12-18T19:01:45.626Z,100138.00
2023-12-18T19:04:17.214Z,100146.00
2023-12-18T19:06:51.258Z,100134.00
2023-12-18T19:09:22.330Z,100143.00
2023-12-18T19:11:55.688Z,100154.00
2023-12-18T19:14:26.987Z,100160.00
2023-12-18T19:16:59.382Z,100168.00
2023-12-18T19:19:36.341Z,100167.00
2023-12-18T19:22:07.389Z,100160.00
2023-12-18T19:24:38.370Z,100154.00
2023-12-18T19:27:09.320Z,100153.00
2023-12-18T19:29:40.239Z,100159.00
2023-12-18T19:32:11.885Z,100161.00
2023-12-18T19:34:43.347Z,100162.00
2023-12-18T19:37:14.342Z,100147.00
2023-12-18T19:39:45.860Z,100148.00
2023-12-18T19:42:16.961Z,100158.00
2023-12-18T19:44:48.869Z,100175.00
2023-12-18T19:47:19.894Z,100173.00
2023-12-18T19:49:51.483Z,100171.00
2023-12-18T19:52:22.542Z,100169.00
2023-12-18T19:54:53.573Z,100164.00
2023-12-18T19:57:24.501Z,100168.00
2023-12-18T19:59:55.399Z,100152.00
2023-12-18T20:02:27.015Z,100146.00
2023-12-18T20:04:58.061Z,100143.00
2023-12-18T20:07:29.086Z,100135.00
2023-12-18T20:10:00.577Z,100148.00
2023-12-18T20:12:31.754Z,100148.00
2023-12-18T20:15:02.814Z,100147.00
2023-12-18T20:17:35.166Z,100138.00
2023-12-18T20:20:06.700Z,100146.00
2023-12-18T20:22:37.667Z,100143.00
2023-12-18T20:25:13.260Z,100136.00
2023-12-18T20:27:44.272Z,100135.00
2023-12-18T20:30:15.576Z,100134.00
2023-12-18T20:32:46.856Z,100143.00
2023-12-18T20:35:18.092Z,100138.00
2023-12-18T20:37:48.959Z,100134.00
2023-12-18T20:40:19.924Z,100141.00
2023-12-18T20:42:51.438Z,100139.00
2023-12-18T20:45:23.047Z,100133.00
2023-12-18T20:47:55.359Z,100138.00
2023-12-18T20:50:27.783Z,100120.00
2023-12-18T20:52:59.757Z,100093.00
2023-12-18T20:55:30.840Z,100087.00
2023-12-18T20:58:01.819Z,100079.00
2023-12-18T21:00:33.464Z,100077.00
2023-12-18T21:03:06.228Z,100098.00
2023-12-18T21:05:37.746Z,100108.00
2023-12-18T21:08:08.789Z,100101.00
2023-12-18T21:10:39.733Z,100116.00
2023-12-18T21:13:11.520Z,100118.00
2023-12-18T21:15:49.195Z,100106.00
2023-12-18T21:18:26.039Z,100121.00
2023-12-18T21:20:56.998Z,100117.00
2023-12-18T21:23:28.277Z,100108.00
2023-12-18T21:25:59.232Z,100109.00
2023-12-18T21:28:30.159Z,100100.00
2023-12-18T21:31:01.650Z,100092.00
2023-12-18T21:33:32.827Z,100111.00
2023-12-18T21:36:06.238Z,100082.00
2023-12-18T21:38:37.899Z,100076.00
2023-12-18T21:41:09.981Z,100075.00
2023-12-18T21:43:41.063Z,100055.00
2023-12-18T21:46:15.555Z,100056.00
2023-12-18T21:48:46.692Z,100067.00
2023-12-18T21:51:27.496Z,100080.00
2023-12-18T21:54:05.599Z,100079.00
2023-12-18T21:56:36.585Z,100087.00
2023-12-18T21:59:07.751Z,100090.00
2023-12-18T22:01:39.418Z,100082.00
2023-12-18T22:04:10.697Z,100067.00
2023-12-18T22:06:41.994Z,100063.00
2023-12-18T22:09:13.098Z,100063.00
2023-12-18T22:11:46.055Z,100070.00
2023-12-18T22:14:17.116Z,100079.00
2023-12-18T22:16:48.171Z,100104.00
2023-12-18T22:19:19.299Z,100120.00
2023-12-18T22:21:50.472Z,100127.00
2023-12-18T22:24:22.088Z,100118.00
2023-12-18T22:26:53.569Z,100112.00
2023-12-18T22:29:24.529Z,100112.00
2023-12-18T22:31:59.096Z,100113.00
2023-12-18T22:34:32.131Z,100120.00
2023-12-18T22:37:03.301Z,100104.00
2023-12-18T22:39:34.640Z,100077.00
2023-12-18T22:42:06.023Z,100053.00
2023-12-18T22:44:36.934Z,100053.00
2023-12-18T22:47:09.270Z,100055.00
2023-12-18T22:49:40.496Z,100042.00
2023-12-18T22:52:11.854Z,100035.00
2023-12-18T22:54:43.325Z,100025.00
2023-12-18T22:57:14.308Z,100015.00
2023-12-18T22:59:45.264Z,99997.00
2023-12-18T23:02:16.175Z,99986.00
2023-12-18T23:04:47.276Z,99976.00
2023-12-18T23:07:18.270Z,99990.00
2023-12-18T23:09:49.619Z,99997.00
2023-12-18T23:12:21.286Z,99987.00
2023-12-18T23:14:52.349Z,99987.00
2023-12-18T23:17:23.293Z,99976.00
2023-12-18T23:19:54.398Z,99985.00
2023-12-18T23:22:25.931Z,99970.00
2023-12-18T23:24:57.035Z,99968.00
2023-12-18T23:27:28.085Z,99962.00
2023-12-18T23:29:59.132Z,99981.00
2023-12-18T23:32:30.088Z,99971.00
2023-12-18T23:35:01.344Z,99960.00
2023-12-18T23:37:32.395Z,99959.00
2023-12-18T23:40:04.310Z,99969.00
2023-12-18T23:42:35.528Z,99980.00
2023-12-18T23:45:07.380Z,99975.00
2023-12-18T23:47:38.339Z,99968.00
2023-12-18T23:50:09.774Z,99976.00
2023-12-18T23:52:41.010Z,99963.00
2023-12-18T23:55:15.746Z,99953.00
2023-12-18T23:57:46.693Z,99967.00
